createdAt,value
2019-03-20T00:00:43.509Z,28.00
2019-03-20T00:03:14.700Z,29.17
2019-03-20T00:05:43.371Z,25.97
2019-03-20T00:08:19.183Z,27.90
2019-03-20T00:10:49.351Z,30.63
2019-03-20T00:13:18.250Z,34.73
2019-03-20T00:15:49.470Z,29.30
2019-03-20T00:18:17.994Z,28.23
2019-03-20T00:20:49.738Z,35.23
2019-03-20T00:23:23.172Z,30.87
2019-03-20T00:25:54.124Z,27.20
2019-03-20T00:28:22.710Z,34.10
2019-03-20T00:30:52.709Z,34.43
2019-03-20T00:33:21.491Z,35.30
2019-03-20T00:35:50.026Z,27.93
2019-03-20T00:38:19.192Z,33.63
2019-03-20T00:40:48.001Z,27.07
2019-03-20T00:43:19.666Z,35.23
2019-03-20T00:45:48.420Z,28.25
2019-03-20T00:48:18.466Z,26.75
2019-03-20T00:50:46.928Z,27.67
2019-03-20T00:53:17.852Z,32.53
2019-03-20T00:55:46.342Z,31.12
2019-03-20T00:58:16.425Z,27.10
2019-03-20T01:00:48.467Z,32.30
2019-03-20T01:03:17.038Z,30.02
2019-03-20T01:05:47.095Z,29.20
2019-03-20T01:08:16.000Z,33.87
2019-03-20T01:10:47.342Z,29.73
2019-03-20T01:13:15.796Z,31.73
2019-03-20T01:15:44.252Z,28.30
2019-03-20T01:18:12.770Z,34.70
2019-03-20T01:20:42.509Z,33.33
2019-03-20T01:23:13.986Z,32.75
2019-03-20T01:25:42.444Z,29.20
2019-03-20T01:28:14.644Z,30.23
2019-03-20T01:30:43.279Z,30.97
2019-03-20T01:33:17.734Z,25.87
2019-03-20T01:35:48.819Z,36.77
2019-03-20T01:38:17.642Z,36.60
2019-03-20T01:40:47.105Z,31.33
2019-03-20T01:43:16.644Z,29.37
2019-03-20T01:45:46.789Z,28.90
2019-03-20T01:48:15.296Z,26.17
2019-03-20T01:50:43.821Z,31.23
2019-03-20T01:53:12.366Z,33.53
2019-03-20T01:55:40.852Z,34.60
2019-03-20T01:58:09.381Z,30.73
2019-03-20T02:00:40.053Z,29.48
2019-03-20T02:03:11.117Z,31.27
2019-03-20T02:05:42.329Z,30.82
2019-03-20T02:08:10.904Z,30.97
2019-03-20T02:10:40.591Z,27.87
2019-03-20T02:13:13.687Z,28.57
2019-03-20T02:15:42.201Z,30.27
2019-03-20T02:18:13.799Z,32.50
2019-03-20T02:20:42.326Z,31.63
2019-03-20T02:23:10.895Z,22.97
2019-03-20T02:25:39.366Z,29.45
2019-03-20T02:28:09.055Z,34.63
2019-03-20T02:30:37.619Z,30.90
2019-03-20T02:33:06.550Z,36.63
2019-03-20T02:35:50.252Z,25.60
2019-03-20T02:38:06.470Z,34.23
2019-03-20T02:40:35.010Z,27.10
2019-03-20T02:43:06.600Z,33.90
2019-03-20T02:45:38.724Z,31.30
2019-03-20T02:48:09.844Z,29.03
2019-03-20T02:50:38.521Z,27.15
2019-03-20T02:53:07.146Z,27.90
2019-03-20T02:55:38.488Z,29.87
2019-03-20T02:58:08.118Z,31.53
2019-03-20T03:00:36.662Z,36.10
2019-03-20T03:03:06.230Z,26.47
2019-03-20T03:05:35.692Z,25.93
2019-03-20T03:08:07.047Z,26.90
2019-03-20T03:10:35.717Z,23.60
2019-03-20T03:13:05.574Z,27.10
2019-03-20T03:15:34.022Z,27.93
2019-03-20T03:18:03.976Z,24.90
2019-03-20T03:20:32.441Z,26.73
2019-03-20T03:23:03.899Z,27.20
2019-03-20T03:25:32.599Z,30.80
2019-03-20T03:28:02.874Z,25.97
2019-03-20T03:30:34.495Z,24.87
2019-03-20T03:33:04.609Z,21.97
2019-03-20T03:35:35.878Z,21.10
2019-03-20T03:38:06.243Z,25.57
2019-03-20T03:40:36.370Z,24.80
2019-03-20T03:43:04.936Z,25.33
2019-03-20T03:45:33.478Z,19.37
2019-03-20T03:48:05.184Z,28.17
2019-03-20T03:50:33.751Z,21.70
2019-03-20T03:53:02.395Z,25.90
2019-03-20T03:55:31.075Z,26.17
2019-03-20T03:58:02.711Z,24.63
2019-03-20T04:00:31.306Z,27.97
2019-03-20T04:02:59.875Z,24.03
2019-03-20T04:05:28.458Z,25.68
2019-03-20T04:07:56.999Z,23.20
2019-03-20T04:10:27.053Z,21.80
2019-03-20T04:12:58.879Z,26.30
2019-03-20T04:15:27.361Z,24.80
2019-03-20T04:17:58.885Z,23.22
2019-03-20T04:20:28.655Z,26.57
2019-03-20T04:22:58.280Z,23.70
2019-03-20T04:25:26.772Z,25.97
2019-03-20T04:27:58.444Z,26.63
2019-03-20T04:30:26.965Z,29.83
2019-03-20T04:32:55.525Z,21.63
2019-03-20T04:35:23.988Z,24.27
2019-03-20T04:37:53.473Z,27.87
2019-03-20T04:40:22.934Z,24.37
2019-03-20T04:42:54.900Z,26.03
2019-03-20T04:45:23.365Z,23.90
2019-03-20T04:47:51.866Z,32.38
2019-03-20T04:50:20.338Z,26.03
2019-03-20T04:52:51.181Z,27.53
2019-03-20T04:55:19.690Z,24.43
2019-03-20T04:57:49.366Z,24.25
2019-03-20T05:00:22.118Z,26.97
2019-03-20T05:02:50.626Z,25.97
2019-03-20T05:05:19.230Z,28.50
2019-03-20T05:07:48.941Z,24.93
2019-03-20T05:10:18.781Z,27.43
2019-03-20T05:12:47.416Z,30.03
2019-03-20T05:15:16.020Z,29.52
2019-03-20T05:17:46.212Z,22.97
2019-03-20T05:20:19.895Z,27.30
2019-03-20T05:22:48.514Z,31.60
2019-03-20T05:25:20.197Z,29.43
2019-03-20T05:27:48.667Z,21.23
2019-03-20T05:30:17.456Z,21.60
2019-03-20T05:32:45.975Z,33.37
2019-03-20T05:35:18.654Z,24.13
2019-03-20T05:37:47.121Z,26.87
2019-03-20T05:40:19.838Z,29.93
2019-03-20T05:42:48.381Z,26.77
2019-03-20T05:45:18.381Z,28.23
2019-03-20T05:47:51.041Z,33.27
2019-03-20T05:50:22.583Z,26.00
2019-03-20T05:52:51.174Z,24.03
2019-03-20T05:55:22.559Z,26.30
2019-03-20T05:57:51.180Z,28.27
2019-03-20T06:00:25.175Z,26.43
2019-03-20T06:02:54.827Z,29.87
2019-03-20T06:05:23.503Z,26.23
2019-03-20T06:07:55.472Z,25.43
2019-03-20T06:10:24.036Z,24.20
2019-03-20T06:12:54.033Z,26.50
2019-03-20T06:15:24.505Z,26.23
2019-03-20T06:17:54.427Z,30.70
2019-03-20T06:20:25.609Z,26.43
2019-03-20T06:22:55.087Z,31.02
2019-03-20T06:25:23.586Z,31.47
2019-03-20T06:27:53.077Z,24.97
2019-03-20T06:30:23.117Z,24.47
2019-03-20T06:32:51.596Z,27.37
2019-03-20T06:35:21.155Z,26.05
2019-03-20T06:37:51.231Z,29.60
2019-03-20T06:40:22.514Z,27.83
2019-03-20T06:42:51.149Z,27.00
2019-03-20T06:45:20.644Z,29.50
2019-03-20T06:47:49.642Z,28.53
2019-03-20T06:50:21.185Z,27.32
2019-03-20T06:52:49.824Z,25.70
2019-03-20T06:55:23.205Z,27.70
2019-03-20T06:57:55.822Z,30.70
2019-03-20T07:00:36.125Z,22.77
2019-03-20T07:03:16.479Z,23.27
2019-03-20T07:06:10.705Z,28.75
2019-03-20T07:09:16.153Z,23.47
2019-03-20T07:11:48.474Z,29.87
2019-03-20T07:14:17.010Z,27.03
2019-03-20T07:16:47.496Z,24.90
2019-03-20T07:19:16.171Z,23.98
2019-03-20T07:21:49.200Z,26.83
2019-03-20T07:24:17.711Z,25.37
2019-03-20T07:26:47.393Z,26.70
2019-03-20T07:29:15.918Z,27.63
2019-03-20T07:31:44.450Z,24.37
2019-03-20T07:34:13.081Z,22.53
2019-03-20T07:36:44.176Z,24.87
2019-03-20T07:39:12.671Z,21.07
2019-03-20T07:41:41.178Z,26.93
2019-03-20T07:44:09.896Z,26.17
2019-03-20T07:46:39.749Z,22.85
2019-03-20T07:49:08.322Z,26.85
2019-03-20T07:51:36.848Z,23.73
2019-03-20T07:54:05.384Z,23.40
2019-03-20T07:56:34.162Z,21.60
2019-03-20T07:59:04.146Z,24.07
2019-03-20T08:01:36.838Z,24.27
2019-03-20T08:04:05.317Z,25.85
2019-03-20T08:06:33.792Z,23.00
2019-03-20T08:09:02.398Z,31.62
2019-03-20T08:11:30.889Z,27.90
2019-03-20T08:13:59.404Z,23.80
2019-03-20T08:16:29.010Z,35.43
2019-03-20T08:18:57.580Z,23.77
2019-03-20T08:21:26.069Z,25.23
2019-03-20T08:23:54.801Z,23.17
2019-03-20T08:26:23.306Z,24.73
2019-03-20T08:28:51.767Z,25.27
2019-03-20T08:31:20.284Z,21.30
2019-03-20T08:33:49.025Z,24.23
2019-03-20T08:36:17.502Z,24.27
2019-03-20T08:38:50.228Z,26.20
2019-03-20T08:41:18.809Z,24.57
2019-03-20T08:43:52.040Z,24.00
2019-03-20T08:46:20.509Z,25.23
2019-03-20T08:48:49.068Z,25.10
2019-03-20T08:51:17.535Z,27.30
2019-03-20T08:53:48.905Z,24.80
2019-03-20T08:56:17.394Z,28.70
2019-03-20T08:58:45.889Z,27.03
2019-03-20T09:01:14.419Z,30.40
2019-03-20T09:03:44.309Z,31.53
2019-03-20T09:06:12.761Z,30.40
2019-03-20T09:08:44.262Z,31.83
2019-03-20T09:11:13.698Z,28.17
2019-03-20T09:13:42.241Z,31.30
2019-03-20T09:16:11.189Z,30.27
2019-03-20T09:18:39.747Z,33.83
2019-03-20T09:21:29.118Z,32.95
2019-03-20T09:23:57.655Z,30.63
2019-03-20T09:26:27.485Z,30.25
2019-03-20T09:29:00.935Z,30.93
2019-03-20T09:31:29.383Z,30.90
2019-03-20T09:34:03.074Z,29.50
2019-03-20T09:36:42.704Z,28.42
2019-03-20T09:39:07.037Z,29.40
2019-03-20T09:41:38.502Z,28.42
2019-03-20T09:44:10.550Z,29.43
2019-03-20T09:46:39.290Z,27.57
2019-03-20T09:49:09.049Z,28.20
2019-03-20T09:51:37.567Z,27.07
2019-03-20T09:54:07.047Z,28.43
2019-03-20T09:56:35.499Z,28.52
2019-03-20T09:59:04.064Z,23.93
2019-03-20T10:01:34.174Z,28.30
2019-03-20T10:04:09.081Z,25.03
2019-03-20T10:06:41.895Z,26.40
2019-03-20T10:09:12.605Z,23.27
2019-03-20T10:11:42.517Z,26.67
2019-03-20T10:14:11.150Z,24.60
2019-03-20T10:16:39.612Z,22.37
2019-03-20T10:19:08.130Z,25.13
2019-03-20T10:21:39.569Z,26.87
2019-03-20T10:24:08.853Z,28.97
2019-03-20T10:26:37.533Z,22.30
2019-03-20T10:29:09.221Z,24.27
2019-03-20T10:31:37.765Z,20.50
2019-03-20T10:34:07.234Z,22.40
2019-03-20T10:36:56.225Z,22.90
2019-03-20T10:39:24.692Z,16.40
2019-03-20T10:41:54.904Z,23.33
2019-03-20T10:44:24.581Z,21.85
2019-03-20T10:46:54.328Z,21.67
2019-03-20T10:49:22.911Z,20.53
2019-03-20T10:51:51.420Z,22.05
2019-03-20T10:54:19.882Z,21.37
2019-03-20T10:56:50.180Z,22.87
2019-03-20T10:59:18.751Z,24.43
2019-03-20T11:01:50.204Z,26.40
2019-03-20T11:04:18.674Z,23.57
2019-03-20T11:06:47.188Z,19.80
2019-03-20T11:09:18.420Z,21.63
2019-03-20T11:11:46.002Z,18.63
2019-03-20T11:14:14.693Z,21.63
2019-03-20T11:16:44.264Z,21.75
2019-03-20T11:19:12.728Z,19.85
2019-03-20T11:21:43.485Z,15.27
2019-03-20T11:24:15.229Z,17.17
2019-03-20T11:26:42.135Z,14.07
2019-03-20T11:29:10.634Z,14.47
2019-03-20T11:31:39.274Z,12.20
2019-03-20T11:34:08.850Z,13.27
2019-03-20T11:36:38.262Z,15.67
2019-03-20T11:39:08.929Z,19.10
2019-03-20T11:41:37.480Z,17.93
2019-03-20T11:44:06.124Z,16.93
2019-03-20T11:46:34.649Z,17.60
2019-03-20T11:49:03.146Z,19.80
2019-03-20T11:51:33.206Z,20.83
2019-03-20T11:54:01.682Z,9.83
2019-03-20T11:56:30.813Z,9.83
2019-03-20T11:58:59.308Z,10.53
2019-03-20T12:01:27.862Z,12.83
2019-03-20T12:03:57.350Z,11.50
2019-03-20T12:06:25.838Z,11.60
2019-03-20T12:08:54.508Z,14.23
2019-03-20T12:11:23.571Z,13.07
2019-03-20T12:13:53.614Z,15.03
2019-03-20T12:16:23.080Z,12.40
2019-03-20T12:18:51.609Z,12.77
2019-03-20T12:21:21.473Z,12.80
2019-03-20T12:23:50.006Z,15.10
2019-03-20T12:26:18.464Z,13.40
2019-03-20T12:28:48.095Z,14.17
2019-03-20T12:31:16.757Z,15.13
2019-03-20T12:33:48.151Z,14.20
2019-03-20T12:36:20.505Z,13.20
2019-03-20T12:38:49.022Z,12.33
2019-03-20T12:41:18.553Z,14.43
2019-03-20T12:43:47.102Z,11.40
2019-03-20T12:46:18.462Z,14.97
2019-03-20T12:48:48.074Z,13.30
2019-03-20T12:51:19.663Z,12.50
2019-03-20T12:53:52.475Z,17.63
2019-03-20T12:56:20.985Z,11.78
2019-03-20T12:58:49.487Z,18.83
2019-03-20T13:01:20.667Z,13.40
2019-03-20T13:03:49.201Z,17.10
2019-03-20T13:06:17.659Z,12.40
2019-03-20T13:08:47.688Z,12.73
2019-03-20T13:11:16.165Z,11.87
2019-03-20T13:13:45.805Z,9.83
2019-03-20T13:16:20.327Z,11.10
2019-03-20T13:18:48.869Z,10.80
2019-03-20T13:21:21.062Z,12.07
2019-03-20T13:23:49.687Z,13.70
2019-03-20T13:26:20.279Z,11.67
2019-03-20T13:28:48.837Z,13.72
2019-03-20T13:31:21.809Z,12.70
2019-03-20T13:33:50.329Z,12.20
2019-03-20T13:36:22.036Z,12.60
2019-03-20T13:38:53.097Z,11.13
2019-03-20T13:41:21.660Z,11.97
2019-03-20T13:43:52.893Z,12.90
2019-03-20T13:46:22.397Z,13.27
2019-03-20T13:48:50.900Z,14.27
2019-03-20T13:51:19.358Z,14.67
2019-03-20T13:53:49.233Z,17.40
2019-03-20T13:56:17.799Z,13.37
2019-03-20T13:58:49.220Z,13.95
2019-03-20T14:01:20.497Z,13.83
2019-03-20T14:03:48.963Z,11.53
2019-03-20T14:06:19.501Z,11.43
2019-03-20T14:08:48.034Z,16.50
2019-03-20T14:11:20.661Z,13.53
2019-03-20T14:13:49.220Z,12.60
2019-03-20T14:16:19.221Z,13.93
2019-03-20T14:18:47.685Z,12.87
2019-03-20T14:21:18.902Z,12.37
2019-03-20T14:23:49.071Z,13.23
2019-03-20T14:26:20.503Z,10.97
2019-03-20T14:28:48.960Z,13.20
2019-03-20T14:31:18.528Z,15.57
2019-03-20T14:33:47.162Z,13.83
2019-03-20T14:36:16.815Z,13.43
2019-03-20T14:38:45.292Z,18.20
2019-03-20T14:41:21.600Z,17.93
2019-03-20T14:43:49.801Z,10.00
2019-03-20T14:46:18.575Z,12.45
2019-03-20T14:48:48.388Z,12.90
2019-03-20T14:51:17.274Z,13.75
2019-03-20T14:53:47.060Z,12.17
2019-03-20T14:56:17.381Z,11.13
2019-03-20T14:58:47.668Z,12.30
2019-03-20T15:01:16.236Z,18.35
2019-03-20T15:03:46.182Z,15.60
2019-03-20T15:06:18.217Z,15.03
2019-03-20T15:08:49.445Z,14.83
2019-03-20T15:11:17.900Z,14.07
2019-03-20T15:13:46.470Z,10.38
2019-03-20T15:16:19.428Z,14.23
2019-03-20T15:18:47.893Z,15.13
2019-03-20T15:21:17.578Z,10.27
2019-03-20T15:23:46.211Z,14.60
2019-03-20T15:26:18.904Z,13.07
2019-03-20T15:28:47.438Z,18.10
2019-03-20T15:31:18.656Z,12.63
2019-03-20T15:33:50.011Z,10.27
2019-03-20T15:36:20.136Z,15.18
2019-03-20T15:38:50.160Z,12.43
2019-03-20T15:41:18.751Z,16.43
2019-03-20T15:43:50.202Z,21.43
2019-03-20T15:46:23.363Z,16.40
2019-03-20T15:48:52.030Z,15.47
2019-03-20T15:51:21.575Z,20.87
2019-03-20T15:53:52.633Z,15.67
2019-03-20T15:56:22.627Z,12.27
2019-03-20T15:58:51.196Z,11.60
2019-03-20T16:01:21.663Z,12.60
2019-03-20T16:03:51.825Z,14.23
2019-03-20T16:06:20.293Z,14.70
2019-03-20T16:08:48.788Z,14.90
2019-03-20T16:11:19.724Z,12.10
2019-03-20T16:13:52.140Z,14.30
2019-03-20T16:16:20.739Z,18.37
2019-03-20T16:18:53.760Z,20.75
2019-03-20T16:21:22.442Z,21.62
2019-03-20T16:23:50.942Z,16.93
2019-03-20T16:26:19.451Z,33.63
2019-03-20T16:28:49.352Z,19.67
2019-03-20T16:31:17.949Z,18.57
2019-03-20T16:33:46.759Z,19.70
2019-03-20T16:36:15.415Z,12.77
2019-03-20T16:38:46.872Z,18.80
2019-03-20T16:41:18.711Z,17.47
2019-03-20T16:43:47.170Z,20.97
2019-03-20T16:46:17.208Z,14.20
2019-03-20T16:48:45.688Z,18.13
2019-03-20T16:51:15.237Z,19.63
2019-03-20T16:53:44.887Z,17.97
2019-03-20T16:56:14.475Z,16.47
2019-03-20T16:58:43.001Z,13.90
2019-03-20T17:01:13.327Z,14.90
2019-03-20T17:03:43.531Z,13.93
2019-03-20T17:06:11.983Z,11.57
2019-03-20T17:08:40.473Z,14.93
2019-03-20T17:11:08.925Z,16.90
2019-03-20T17:13:37.491Z,13.20
2019-03-20T17:16:09.817Z,13.17
2019-03-20T17:18:38.276Z,12.77
2019-03-20T17:21:06.737Z,12.13
2019-03-20T17:23:35.361Z,13.90
2019-03-20T17:26:05.389Z,19.73
2019-03-20T17:28:34.668Z,23.10
2019-03-20T17:31:06.449Z,12.80
2019-03-20T17:33:35.937Z,13.27
2019-03-20T17:36:07.551Z,14.23
2019-03-20T17:38:37.177Z,14.90
2019-03-20T17:41:06.785Z,15.07
2019-03-20T17:43:37.046Z,15.70
2019-03-20T17:46:05.966Z,16.60
2019-03-20T17:48:35.647Z,13.15
2019-03-20T17:51:04.484Z,12.97
2019-03-20T17:53:35.641Z,14.73
2019-03-20T17:56:06.416Z,15.70
2019-03-20T17:58:34.874Z,13.93
2019-03-20T18:01:08.625Z,15.18
2019-03-20T18:03:37.504Z,17.33
2019-03-20T18:06:08.329Z,17.83
2019-03-20T18:08:36.846Z,16.17
2019-03-20T18:11:08.768Z,14.25
2019-03-20T18:13:37.269Z,18.32
2019-03-20T18:16:07.083Z,15.73
2019-03-20T18:18:38.357Z,15.80
2019-03-20T18:21:06.877Z,14.87
2019-03-20T18:23:38.516Z,16.60
2019-03-20T18:26:09.949Z,15.57
2019-03-20T18:28:38.424Z,16.00
2019-03-20T18:31:10.764Z,16.17
2019-03-20T18:33:39.291Z,14.03
2019-03-20T18:36:10.483Z,19.73
2019-03-20T18:38:38.980Z,18.67
2019-03-20T18:41:10.102Z,18.20
2019-03-20T18:43:38.594Z,27.57
2019-03-20T18:46:10.128Z,32.47
2019-03-20T18:48:40.160Z,31.87
2019-03-20T18:51:08.690Z,26.90
2019-03-20T18:53:38.208Z,22.53
2019-03-20T18:56:06.747Z,22.73
2019-03-20T18:58:35.212Z,26.73
2019-03-20T19:01:06.586Z,26.90
2019-03-20T19:03:48.521Z,25.13
2019-03-20T19:06:24.505Z,24.87
2019-03-20T19:08:53.302Z,16.53
2019-03-20T19:11:25.672Z,20.50
2019-03-20T19:13:57.841Z,21.50
2019-03-20T19:16:26.399Z,17.37
2019-03-20T19:18:57.388Z,16.37
2019-03-20T19:21:25.960Z,20.27
2019-03-20T19:23:55.975Z,20.07
2019-03-20T19:26:24.526Z,26.83
2019-03-20T19:28:54.717Z,18.03
2019-03-20T19:31:23.207Z,19.70
2019-03-20T19:33:56.151Z,23.00
2019-03-20T19:36:24.715Z,22.33
2019-03-20T19:38:56.102Z,18.00
2019-03-20T19:41:27.014Z,17.50
2019-03-20T19:43:57.306Z,20.33
2019-03-20T19:46:25.757Z,22.03
2019-03-20T19:48:55.761Z,18.77
2019-03-20T19:51:24.359Z,16.47
2019-03-20T19:53:52.909Z,18.43
2019-03-20T19:56:23.848Z,20.23
2019-03-20T19:58:52.357Z,18.67
2019-03-20T20:01:22.026Z,17.85
2019-03-20T20:03:52.689Z,17.47
2019-03-20T20:06:21.265Z,20.07
2019-03-20T20:08:49.727Z,18.93
2019-03-20T20:11:20.597Z,19.53
2019-03-20T20:13:50.429Z,21.37
2019-03-20T20:16:18.897Z,18.10
2019-03-20T20:18:48.322Z,19.47
2019-03-20T20:21:17.099Z,17.70
2019-03-20T20:23:48.425Z,15.83
2019-03-20T20:26:21.348Z,21.37
2019-03-20T20:28:49.943Z,19.97
2019-03-20T20:31:20.927Z,25.20
2019-03-20T20:33:49.425Z,23.10
2019-03-20T20:36:19.919Z,29.67
2019-03-20T20:38:50.867Z,24.18
2019-03-20T20:41:20.313Z,22.33
2019-03-20T20:43:48.847Z,19.37
2019-03-20T20:46:20.039Z,26.85
2019-03-20T20:48:48.537Z,28.97
2019-03-20T20:51:17.071Z,27.17
2019-03-20T20:53:45.615Z,26.37
2019-03-20T20:56:14.110Z,29.02
2019-03-20T20:58:42.578Z,25.90
2019-03-20T21:01:12.155Z,27.83
2019-03-20T21:03:40.771Z,22.17
2019-03-20T21:06:10.599Z,22.37
2019-03-20T21:08:39.200Z,24.80
2019-03-20T21:11:09.397Z,24.75
2019-03-20T21:13:37.930Z,22.27
2019-03-20T21:16:06.627Z,23.25
2019-03-20T21:18:44.284Z,24.77
2019-03-20T21:21:12.768Z,25.40
2019-03-20T21:24:19.446Z,25.07
2019-03-20T21:27:11.251Z,22.53
2019-03-20T21:29:59.466Z,19.53
2019-03-20T21:32:53.272Z,24.20
2019-03-20T21:35:50.051Z,22.97
2019-03-20T21:38:17.489Z,22.87
2019-03-20T21:41:07.002Z,24.07
2019-03-20T21:43:58.892Z,24.20
2019-03-20T21:46:30.439Z,23.67
2019-03-20T21:48:58.916Z,22.90
2019-03-20T21:51:27.438Z,24.02
2019-03-20T21:54:27.664Z,22.77
2019-03-20T21:57:05.107Z,22.45
2019-03-20T21:59:55.984Z,22.40
2019-03-20T22:02:40.554Z,26.83
2019-03-20T22:05:22.797Z,23.50
2019-03-20T22:07:44.174Z,25.00
2019-03-20T22:10:29.078Z,24.93
2019-03-20T22:13:18.979Z,22.83
2019-03-20T22:16:01.089Z,24.33
2019-03-20T22:18:55.507Z,24.10
2019-03-20T22:21:40.139Z,22.30
2019-03-20T22:24:16.010Z,19.17
2019-03-20T22:26:59.935Z,19.93
2019-03-20T22:29:28.818Z,22.97
2019-03-20T22:32:23.929Z,25.47
2019-03-20T22:35:10.449Z,27.17
2019-03-20T22:37:40.694Z,24.57
2019-03-20T22:40:15.118Z,24.50
2019-03-20T22:42:58.699Z,26.10
2019-03-20T22:45:52.642Z,25.87
2019-03-20T22:48:48.352Z,24.33
2019-03-20T22:51:49.726Z,23.97
2019-03-20T22:54:55.845Z,32.10
2019-03-20T22:57:43.392Z,27.13
2019-03-20T23:00:13.366Z,22.13
2019-03-20T23:02:53.714Z,26.60
2019-03-20T23:05:24.052Z,22.67
2019-03-20T23:07:52.574Z,26.30
2019-03-20T23:10:22.581Z,27.90
2019-03-20T23:12:51.199Z,28.87
2019-03-20T23:15:21.721Z,29.90
2019-03-20T23:17:50.300Z,27.93
2019-03-20T23:20:24.977Z,25.60
2019-03-20T23:22:53.633Z,25.90
2019-03-20T23:25:26.761Z,22.50
2019-03-20T23:27:56.487Z,24.13
2019-03-20T23:30:27.707Z,23.23
2019-03-20T23:33:01.401Z,26.30
2019-03-20T23:35:33.267Z,29.35
2019-03-20T23:38:02.633Z,26.97
2019-03-20T23:40:31.092Z,29.60
2019-03-20T23:43:06.513Z,25.33
2019-03-20T23:45:35.082Z,31.07
2019-03-20T23:48:25.902Z,28.27
2019-03-20T23:50:59.134Z,26.45
2019-03-20T23:53:27.993Z,33.57
2019-03-20T23:55:56.459Z,27.10
2019-03-20T23:58:25.081Z,31.40
